• Join FlightAware (Why Join?)
  • Login
  • US Flag 
08:35PM EDT


 

Airport Tracker/Info


-or-


 

Live Flight TrackerFlight Track Log ✈ N800K ✈ 28-Jul-2013 ✈ KGMU - KFLO

Flight Track Log - Related Links

Times and Time Zones

All times are in EDT time to prevent confusion due to time zone crossing. See the N800K flight status page for this flight to view local times or setup timezone preferences in your user account.

Time Position Orientation Groundspeed Altitude Reporting Facility
EDT Latitude Longitude Course Direction KTS MPH feet Rate Location/Type
12:37PM 34.5953 -81.8837 124° Southeast  Level FlightAware Approximate
12:38PM 34.5724 -81.8423 124° Southeast  Level FlightAware Approximate
12:39PM 34.5494 -81.8010 124° Southeast  Level FlightAware Approximate
12:40PM 34.5264 -81.7596 124° Southeast  Level FlightAware Approximate
12:41PM 34.5034 -81.7183 124° Southeast  Level FlightAware Approximate
12:42PM 34.4803 -81.6770 124° Southeast  Level FlightAware Approximate
12:43PM 34.4573 -81.6358 124° Southeast  Level FlightAware Approximate
12:44PM 34.4342 -81.5945 124° Southeast  Level FlightAware Approximate
12:45PM 34.4112 -81.5533 124° Southeast  Level FlightAware Approximate
12:46PM 34.3890 -81.5114 121° Southeast  Level FlightAware Approximate
12:47PM 34.3677 -81.4688 121° Southeast  Level FlightAware Approximate
12:48PM 34.3465 -81.4262 121° Southeast  Level FlightAware Approximate
12:49PM 34.3314 -81.3810 97° East  Level FlightAware Approximate
12:50PM 34.3263 -81.3317 97° East  Level FlightAware Approximate
12:51PM 34.3212 -81.2823 97° East  Level FlightAware Approximate
12:52PM 34.3161 -81.2329 97° East  Level FlightAware Approximate
12:53PM 34.3109 -81.1836 97° East  Level FlightAware Approximate
12:54PM 34.3058 -81.1342 97° East  Level FlightAware Approximate
12:55PM 34.3006 -81.0849 97° East  Level FlightAware Approximate
12:56PM 34.2954 -81.0356 97° East  Level FlightAware Approximate
12:57PM 34.2902 -80.9862 97° East  Level FlightAware Approximate
12:58PM 34.2849 -80.9369 97° East  Level FlightAware Approximate
12:59PM 34.2797 -80.8876 97° East  Level FlightAware Approximate
01:00PM 34.2744 -80.8383 97° East  Level FlightAware Approximate
01:01PM 34.2691 -80.7890 97° East  Level FlightAware Approximate
01:02PM 34.2643 -80.7396 96° East  Level FlightAware Approximate
01:03PM 34.2601 -80.6901 96° East  Level FlightAware Approximate
01:04PM 34.2558 -80.6407 96° East  Level FlightAware Approximate
01:05PM 34.2515 -80.5912 96° East  Level FlightAware Approximate
01:06PM 34.2471 -80.5418 96° East  Level FlightAware Approximate
01:07PM 34.2428 -80.4924 96° East  Level FlightAware Approximate
01:08PM 34.2384 -80.4430 96° East  Level FlightAware Approximate
01:09PM 34.2340 -80.3935 96° East  Level FlightAware Approximate
01:10PM 34.2296 -80.3441 96° East  Level FlightAware Approximate
01:11PM 34.2252 -80.2947 96° East  Level FlightAware Approximate
01:12PM 34.2208 -80.2453 96° East  Level FlightAware Approximate
01:13PM 34.2167 -80.1959 90° East  Level FlightAware Approximate
01:14PM 34.2167 -80.1462 90° East  Level FlightAware Approximate
01:15PM 34.2167 -80.0965 90° East  Level FlightAware Approximate
01:16PM 34.2163 -80.0469 99° East  Level FlightAware Approximate
01:17PM 34.2098 -79.9978 99° East  Level FlightAware Approximate
01:18PM 34.2032 -79.9488 99° East  Level FlightAware Approximate
01:19PM 34.1967 -79.8997 99° East  Level FlightAware Approximate
01:20PM 34.1901 -79.8507 99° East  Level FlightAware Approximate
01:21PM 34.1836 -79.8017 99° East  Level FlightAware Approximate
01:22PM 34.1833 -79.7520 90° East  Level FlightAware Approximate
01:23PM 34.1833 -79.7167 90° East  Level FlightAware Approximate
01:24PM 34.1854 -79.7239 90° East  Level Estimated
01:25PM 34.1833 -79.7167 90° East  Level FlightAware Approximate
01:26PM 34.1854 -79.7239 90° East  Level Estimated
01:27PM 34.1833 -79.7167 90° East  Level FlightAware Approximate
01:28PM 34.1854 -79.7239 90° East  Level Estimated
01:29PM 34.1833 -79.7167 90° East  Level FlightAware Approximate
01:30PM 34.1854 -79.7239 90° East  Level Estimated
01:31PM 34.1833 -79.7167 90° East  Level FlightAware Approximate
01:32PM 34.1854 -79.7239 90° East  Level Estimated
01:33PM 34.1833 -79.7167 90° East  Level FlightAware Approximate
01:34PM 34.1854 -79.7239 90° East  Level Estimated